Weather at Smoketown Airport

Public forecast

Using degrees Fahrenheit for public forecast. Weather courtesy of forecast.io.

Closest aviation weather report (METAR) to Smoketown Airport

Closest report is Lancaster Airport, 6.5 nm (12.0 km) NW.

2024/06/23 16:53 (retrieved 33 minutes ago)

KLNS 231653Z 24013KT 10SM FEW110 32/19 A2972 RMK AO2 SLP061 T03220194

Closest aviation forecast (TAF) to Smoketown Airport

Closest forecast is Lancaster Airport, 6.5 nm (12.0 km) NW.

2024/06/23 16:30 Ammendment (retrieved 56 minutes ago)

TAF AMD KLNS 231629Z 2316/2412 25015G24KT P6SM BKN100 BKN250 FM231800 25012G25KT P6SM -SHRA VCTS BKN100 OVC200CB FM240100 26012KT P6SM -SHRA VCTS BKN070CB FM241100 28010KT P6SM BKN150